createdAt,value
2022-10-10T00:00:28.011Z,4.22
2022-10-10T00:02:55.764Z,4.38
2022-10-10T00:05:23.516Z,4.03
2022-10-10T00:07:51.350Z,4.78
2022-10-10T00:10:19.201Z,3.88
2022-10-10T00:12:47.246Z,4.03
2022-10-10T00:15:15.668Z,3.40
2022-10-10T00:17:44.008Z,3.95
2022-10-10T00:20:12.502Z,3.85
2022-10-10T00:22:40.412Z,3.83
2022-10-10T00:25:08.818Z,4.30
2022-10-10T00:27:36.835Z,5.45
2022-10-10T00:30:07.433Z,4.35
2022-10-10T00:32:35.682Z,4.05
2022-10-10T00:35:04.304Z,4.20
2022-10-10T00:37:32.078Z,4.35
2022-10-10T00:39:59.842Z,3.78
2022-10-10T00:42:27.602Z,4.00
2022-10-10T00:45:13.926Z,4.50
2022-10-10T00:47:41.736Z,4.00
2022-10-10T00:50:09.643Z,3.58
2022-10-10T00:52:37.409Z,3.80
2022-10-10T00:55:05.589Z,4.25
2022-10-10T00:57:33.352Z,4.22
2022-10-10T01:00:01.620Z,4.47
2022-10-10T01:02:29.435Z,4.28
2022-10-10T01:05:00.196Z,4.55
2022-10-10T01:07:30.463Z,4.20
2022-10-10T01:10:00.785Z,3.85
2022-10-10T01:12:40.735Z,3.97
2022-10-10T01:15:17.825Z,3.63
2022-10-10T01:17:50.685Z,4.38
2022-10-10T01:20:47.809Z,4.20
2022-10-10T01:23:31.007Z,4.20
2022-10-10T01:26:13.826Z,4.45
2022-10-10T01:28:44.524Z,4.20
2022-10-10T01:31:14.305Z,4.10
2022-10-10T01:33:50.930Z,4.32
2022-10-10T01:36:21.743Z,3.92
2022-10-10T01:38:50.704Z,4.05
2022-10-10T01:41:23.140Z,3.92
2022-10-10T01:43:54.483Z,4.00
2022-10-10T01:46:22.735Z,3.97
2022-10-10T01:48:52.921Z,4.13
2022-10-10T01:51:23.531Z,4.10
2022-10-10T01:54:10.010Z,3.35
2022-10-10T01:56:37.826Z,4.57
2022-10-10T01:59:11.730Z,3.40
2022-10-10T02:02:03.990Z,4.05
2022-10-10T02:04:34.504Z,3.33
2022-10-10T02:07:13.288Z,3.88
2022-10-10T02:09:42.936Z,3.90
2022-10-10T02:12:11.778Z,3.92
2022-10-10T02:14:44.359Z,3.72
2022-10-10T02:17:13.326Z,3.77
2022-10-10T02:19:45.295Z,3.42
2022-10-10T02:22:13.934Z,4.07
2022-10-10T02:24:41.902Z,3.50
2022-10-10T02:27:17.069Z,3.20
2022-10-10T02:29:46.173Z,3.20
2022-10-10T02:32:43.196Z,3.42
2022-10-10T02:35:14.818Z,3.80
2022-10-10T02:37:42.964Z,3.00
2022-10-10T02:40:12.420Z,3.85
2022-10-10T02:42:40.923Z,3.80
2022-10-10T02:45:08.912Z,3.42
2022-10-10T02:47:36.691Z,3.10
2022-10-10T02:50:04.588Z,3.53
2022-10-10T02:52:32.371Z,3.92
2022-10-10T02:55:00.207Z,3.30
2022-10-10T02:57:28.017Z,3.28
2022-10-10T02:59:55.848Z,3.35
2022-10-10T03:02:23.639Z,3.53
2022-10-10T03:04:51.411Z,3.28
2022-10-10T03:07:19.269Z,3.30
2022-10-10T03:09:46.996Z,3.67
2022-10-10T03:12:14.818Z,4.03
2022-10-10T03:14:42.568Z,4.45
2022-10-10T03:17:10.372Z,4.22
2022-10-10T03:19:38.294Z,3.50
2022-10-10T03:22:06.142Z,4.35
2022-10-10T03:24:33.956Z,3.58
2022-10-10T03:27:01.897Z,3.20
2022-10-10T03:29:29.800Z,3.65
2022-10-10T03:31:58.248Z,4.35
2022-10-10T03:34:26.106Z,3.72
2022-10-10T03:36:53.983Z,3.25
2022-10-10T03:39:21.844Z,3.92
2022-10-10T03:41:50.408Z,4.10
2022-10-10T03:44:18.766Z,3.55
2022-10-10T03:46:46.573Z,3.88
2022-10-10T03:49:14.361Z,3.13
2022-10-10T03:51:42.209Z,3.50
2022-10-10T03:54:10.000Z,3.40
2022-10-10T03:56:37.822Z,4.30
2022-10-10T03:59:06.532Z,3.28
2022-10-10T04:01:34.697Z,3.30
2022-10-10T04:04:02.487Z,3.47
2022-10-10T04:06:30.372Z,3.33
2022-10-10T04:08:58.227Z,3.22
2022-10-10T04:11:26.046Z,3.35
2022-10-10T04:13:53.874Z,3.80
2022-10-10T04:16:21.692Z,3.63
2022-10-10T04:18:49.513Z,4.05
2022-10-10T04:21:17.328Z,4.15
2022-10-10T04:23:45.185Z,3.60
2022-10-10T04:26:12.958Z,3.75
2022-10-10T04:28:40.772Z,3.30
2022-10-10T04:31:08.772Z,4.07
2022-10-10T04:33:36.563Z,3.47
2022-10-10T04:36:04.500Z,3.63
2022-10-10T04:38:32.251Z,4.07
2022-10-10T04:41:00.107Z,4.28
2022-10-10T04:43:27.863Z,4.32
2022-10-10T04:45:57.650Z,4.20
2022-10-10T04:48:25.667Z,5.05
2022-10-10T04:50:54.376Z,4.43
2022-10-10T04:53:22.366Z,4.90
2022-10-10T04:55:50.263Z,5.15
2022-10-10T04:58:18.124Z,5.30
2022-10-10T05:00:45.967Z,5.57
2022-10-10T05:03:14.139Z,5.45
2022-10-10T05:05:41.887Z,5.10
2022-10-10T05:08:09.687Z,6.22
2022-10-10T05:10:39.114Z,5.63
2022-10-10T05:13:08.167Z,4.90
2022-10-10T05:15:36.100Z,6.30
2022-10-10T05:18:04.596Z,5.07
2022-10-10T05:20:32.889Z,5.70
2022-10-10T05:23:00.704Z,5.30
2022-10-10T05:25:28.987Z,5.75
2022-10-10T05:27:56.799Z,6.07
2022-10-10T05:30:24.581Z,6.00
2022-10-10T05:32:52.794Z,6.18
2022-10-10T05:35:20.868Z,7.47
2022-10-10T05:37:48.670Z,7.05
2022-10-10T05:40:16.547Z,6.88
2022-10-10T05:42:45.004Z,6.07
2022-10-10T05:45:12.797Z,6.68
2022-10-10T05:47:40.599Z,9.40
2022-10-10T05:50:09.967Z,8.15
2022-10-10T05:52:37.772Z,10.43
2022-10-10T05:55:05.870Z,9.45
2022-10-10T05:57:33.755Z,7.15
2022-10-10T06:00:01.552Z,7.35
2022-10-10T06:02:32.298Z,6.80
2022-10-10T06:05:00.126Z,6.60
2022-10-10T06:07:40.523Z,6.13
2022-10-10T06:10:13.590Z,8.13
2022-10-10T06:12:41.459Z,5.90
2022-10-10T06:15:09.527Z,7.03
2022-10-10T06:17:37.347Z,6.45
2022-10-10T06:20:05.257Z,6.50
2022-10-10T06:22:33.019Z,6.97
2022-10-10T06:25:00.746Z,7.78
2022-10-10T06:27:31.444Z,7.00
2022-10-10T06:29:59.460Z,7.35
2022-10-10T06:32:27.288Z,7.43
2022-10-10T06:34:55.211Z,6.30
2022-10-10T06:37:22.997Z,7.25
2022-10-10T06:39:51.796Z,7.07
2022-10-10T06:42:19.628Z,7.95
2022-10-10T06:47:20.588Z,6.88
2022-10-10T06:49:48.399Z,7.55
2022-10-10T06:52:16.323Z,7.20
2022-10-10T06:54:44.135Z,6.78
2022-10-10T06:57:11.947Z,6.65
2022-10-10T06:59:39.733Z,7.40
2022-10-10T07:02:07.698Z,6.78
2022-10-10T07:04:35.507Z,6.90
2022-10-10T07:07:03.330Z,6.50
2022-10-10T07:09:31.150Z,6.05
2022-10-10T07:11:58.962Z,7.45
2022-10-10T07:14:27.881Z,6.70
2022-10-10T07:16:56.235Z,6.70
2022-10-10T07:19:25.070Z,6.45
2022-10-10T07:21:52.866Z,5.75
2022-10-10T07:24:23.747Z,6.25
2022-10-10T07:27:02.379Z,6.38
2022-10-10T07:29:31.556Z,6.75
2022-10-10T07:31:59.396Z,8.07
2022-10-10T07:34:27.359Z,6.38
2022-10-10T07:36:55.357Z,6.53
2022-10-10T07:39:26.804Z,5.80
2022-10-10T07:41:54.631Z,6.60
2022-10-10T07:44:24.730Z,6.20
2022-10-10T07:46:55.792Z,6.20
2022-10-10T07:49:23.595Z,6.65
2022-10-10T07:51:51.380Z,6.53
2022-10-10T07:54:19.231Z,5.80
2022-10-10T07:56:47.065Z,5.43
2022-10-10T07:59:14.825Z,5.90
2022-10-10T08:01:42.655Z,6.35
2022-10-10T08:04:10.549Z,6.80
2022-10-10T08:06:38.362Z,6.10
2022-10-10T08:09:06.184Z,7.00
2022-10-10T08:11:33.996Z,7.03
2022-10-10T08:14:01.816Z,6.97
2022-10-10T08:16:29.688Z,6.93
2022-10-10T08:18:57.527Z,7.72
2022-10-10T08:21:25.348Z,6.90
2022-10-10T08:23:53.203Z,6.65
2022-10-10T08:26:21.096Z,8.30
2022-10-10T08:28:49.189Z,6.40
2022-10-10T08:31:18.730Z,5.43
2022-10-10T08:33:47.572Z,6.55
2022-10-10T08:36:16.636Z,6.35
2022-10-10T08:38:44.500Z,5.93
2022-10-10T08:41:27.750Z,5.82
2022-10-10T08:43:57.271Z,5.82
2022-10-10T08:46:34.390Z,6.00
2022-10-10T08:49:13.915Z,5.05
2022-10-10T08:51:43.776Z,6.80
2022-10-10T08:54:13.002Z,6.50
2022-10-10T08:56:41.966Z,5.93
2022-10-10T08:59:17.255Z,5.45
2022-10-10T09:02:18.508Z,5.93
2022-10-10T09:04:33.921Z,6.53
2022-10-10T09:07:24.903Z,6.00
2022-10-10T09:09:52.710Z,6.13
2022-10-10T09:12:20.596Z,6.07
2022-10-10T09:15:06.874Z,6.25
2022-10-10T09:17:47.592Z,6.47
2022-10-10T09:20:34.143Z,5.60
2022-10-10T09:23:04.124Z,5.85
2022-10-10T09:25:39.016Z,6.50
2022-10-10T09:28:06.867Z,5.53
2022-10-10T09:30:37.415Z,5.85
2022-10-10T09:33:05.217Z,5.38
2022-10-10T09:35:35.833Z,6.00
2022-10-10T09:38:22.500Z,6.22
2022-10-10T09:40:56.271Z,6.68
2022-10-10T09:43:24.420Z,5.63
2022-10-10T09:45:53.384Z,5.63
2022-10-10T09:48:28.644Z,6.60
2022-10-10T09:50:56.934Z,6.57
2022-10-10T09:53:24.994Z,5.82
2022-10-10T09:55:53.930Z,6.35
2022-10-10T09:58:28.917Z,6.55
2022-10-10T10:01:10.422Z,5.32
2022-10-10T10:03:38.204Z,5.63
2022-10-10T10:06:06.141Z,6.13
2022-10-10T10:08:35.418Z,5.13
2022-10-10T10:11:04.416Z,5.80
2022-10-10T10:13:35.554Z,6.40
2022-10-10T10:16:14.264Z,6.03
2022-10-10T10:18:46.496Z,6.20
2022-10-10T10:21:18.904Z,5.55
2022-10-10T10:24:00.538Z,6.15
2022-10-10T10:26:45.235Z,5.18
2022-10-10T10:29:42.286Z,5.93
2022-10-10T10:32:22.503Z,6.82
2022-10-10T10:34:53.448Z,6.18
2022-10-10T10:37:27.225Z,5.57
2022-10-10T10:40:07.397Z,5.13
2022-10-10T10:42:42.809Z,6.00
2022-10-10T10:45:19.844Z,5.90
2022-10-10T10:47:53.904Z,6.00
2022-10-10T10:51:00.537Z,5.70
2022-10-10T10:53:28.716Z,6.10
2022-10-10T10:56:14.408Z,6.72
2022-10-10T10:59:22.525Z,5.78
2022-10-10T11:01:58.345Z,5.72
2022-10-10T11:05:23.584Z,5.88
2022-10-10T11:07:58.055Z,5.40
2022-10-10T11:10:25.894Z,6.35
2022-10-10T11:13:15.272Z,5.28
2022-10-10T11:18:39.436Z,5.53
2022-10-10T11:21:10.068Z,5.30
2022-10-10T11:23:37.884Z,5.20
2022-10-10T11:26:13.732Z,4.40
2022-10-10T11:28:49.267Z,5.88
2022-10-10T11:31:21.630Z,4.85
2022-10-10T11:33:57.288Z,4.93
2022-10-10T11:36:27.991Z,4.22
2022-10-10T11:38:58.632Z,4.22
2022-10-10T11:41:45.055Z,4.95
2022-10-10T11:44:18.160Z,4.40
2022-10-10T11:49:13.767Z,5.55
2022-10-10T11:52:09.489Z,4.80
2022-10-10T11:54:55.812Z,4.55
2022-10-10T11:57:37.924Z,4.68
2022-10-10T12:00:07.643Z,4.53
2022-10-10T12:02:36.944Z,4.57
2022-10-10T12:05:06.184Z,4.68
2022-10-10T12:07:46.984Z,4.38
2022-10-10T12:10:22.503Z,4.50
2022-10-10T12:12:51.724Z,5.32
2022-10-10T12:15:30.363Z,4.35
2022-10-10T12:17:58.547Z,4.70
2022-10-10T12:20:26.510Z,5.38
2022-10-10T12:23:13.552Z,5.03
2022-10-10T12:25:42.648Z,4.80
2022-10-10T12:28:13.558Z,5.00
2022-10-10T12:30:57.768Z,3.80
2022-10-10T12:33:31.960Z,4.57
2022-10-10T12:36:20.018Z,4.57
2022-10-10T12:39:10.218Z,4.85
2022-10-10T12:41:47.389Z,5.38
2022-10-10T12:44:15.340Z,4.38
2022-10-10T12:46:43.458Z,4.85
2022-10-10T12:49:17.381Z,4.20
2022-10-10T12:51:46.183Z,4.07
2022-10-10T12:54:23.936Z,4.15
2022-10-10T12:56:53.233Z,4.30
2022-10-10T12:59:23.381Z,5.25
2022-10-10T13:01:53.776Z,4.65
2022-10-10T13:04:22.252Z,4.55
2022-10-10T13:06:52.777Z,5.57
2022-10-10T13:09:28.986Z,4.30
2022-10-10T13:12:01.634Z,4.85
2022-10-10T13:14:42.864Z,4.50
2022-10-10T13:17:21.708Z,3.67
2022-10-10T13:19:49.768Z,4.65
2022-10-10T13:22:18.150Z,5.03
2022-10-10T13:24:47.750Z,4.70
2022-10-10T13:27:28.980Z,4.57
2022-10-10T13:29:56.820Z,4.55
2022-10-10T13:32:29.672Z,4.30
2022-10-10T13:35:01.355Z,4.25
2022-10-10T13:37:31.608Z,4.25
2022-10-10T13:39:59.713Z,4.65
2022-10-10T13:42:37.989Z,4.43
2022-10-10T13:45:30.346Z,5.32
2022-10-10T13:48:01.442Z,4.95
2022-10-10T13:50:34.078Z,5.20
2022-10-10T13:53:34.113Z,5.63
2022-10-10T13:56:20.494Z,5.00
2022-10-10T13:58:48.350Z,4.70
2022-10-10T14:01:21.869Z,5.15
2022-10-10T14:03:50.671Z,4.70
2022-10-10T14:06:22.355Z,5.03
2022-10-10T14:08:50.760Z,4.95
2022-10-10T14:11:20.225Z,5.25
2022-10-10T14:13:49.985Z,4.70
2022-10-10T14:16:20.957Z,5.25
2022-10-10T14:18:48.732Z,5.15
2022-10-10T14:21:16.486Z,4.90
2022-10-10T14:23:44.417Z,5.15
2022-10-10T14:26:15.144Z,5.70
2022-10-10T14:28:43.468Z,5.03
2022-10-10T14:31:11.441Z,5.40
2022-10-10T14:33:39.545Z,5.55
2022-10-10T14:36:07.519Z,5.88
2022-10-10T14:38:35.435Z,5.10
2022-10-10T14:41:03.604Z,4.72
2022-10-10T14:43:31.681Z,4.82
2022-10-10T14:45:59.522Z,4.93
2022-10-10T14:48:27.485Z,5.53
2022-10-10T14:50:55.462Z,4.85
2022-10-10T14:53:23.229Z,4.88
2022-10-10T14:55:55.996Z,6.38
2022-10-10T14:58:24.136Z,4.38
2022-10-10T15:00:52.939Z,5.10
2022-10-10T15:03:20.993Z,5.53
2022-10-10T15:05:48.948Z,5.03
2022-10-10T15:08:17.842Z,5.60
2022-10-10T15:10:46.594Z,5.38
2022-10-10T15:13:15.203Z,4.85
2022-10-10T15:15:43.002Z,4.90
2022-10-10T15:18:33.226Z,5.22
2022-10-10T15:20:58.877Z,5.57
2022-10-10T15:23:27.050Z,5.05
2022-10-10T15:25:54.798Z,4.47
2022-10-10T15:28:22.603Z,5.25
2022-10-10T15:30:52.654Z,5.57
2022-10-10T15:33:20.419Z,5.45
2022-10-10T15:36:09.165Z,4.88
2022-10-10T15:38:37.944Z,6.78
2022-10-10T15:41:08.920Z,5.40
2022-10-10T15:43:42.679Z,5.93
2022-10-10T15:46:10.811Z,5.45
2022-10-10T15:48:38.640Z,5.78
2022-10-10T15:51:07.331Z,6.20
2022-10-10T15:53:35.473Z,5.90
2022-10-10T15:56:09.913Z,4.93
2022-10-10T15:58:39.279Z,5.47
2022-10-10T16:01:10.806Z,6.00
2022-10-10T16:03:38.728Z,5.90
2022-10-10T16:06:06.702Z,5.40
2022-10-10T16:08:34.820Z,5.63
2022-10-10T16:11:06.696Z,5.43
2022-10-10T16:13:36.074Z,6.00
2022-10-10T16:16:06.300Z,5.35
2022-10-10T16:18:39.290Z,5.82
2022-10-10T16:21:12.132Z,5.30
2022-10-10T16:23:40.483Z,5.85
2022-10-10T16:26:09.721Z,5.65
2022-10-10T16:28:40.153Z,5.50
2022-10-10T16:31:09.279Z,5.63
2022-10-10T16:33:37.866Z,6.15
2022-10-10T16:36:13.797Z,5.68
2022-10-10T16:38:42.062Z,5.90
2022-10-10T16:41:28.838Z,6.05
2022-10-10T16:43:59.179Z,5.65
2022-10-10T16:46:27.420Z,6.07
2022-10-10T16:48:58.016Z,7.60
2022-10-10T16:51:27.665Z,6.22
2022-10-10T16:53:55.739Z,6.32
2022-10-10T16:56:23.616Z,6.72
2022-10-10T16:58:51.442Z,5.45
2022-10-10T17:01:20.913Z,5.97
2022-10-10T17:03:49.555Z,6.40
2022-10-10T17:06:21.464Z,5.72
2022-10-10T17:08:52.940Z,7.03
2022-10-10T17:11:21.557Z,6.15
2022-10-10T17:13:49.426Z,5.93
2022-10-10T17:16:59.689Z,6.47
2022-10-10T17:19:09.969Z,7.03
2022-10-10T17:21:37.790Z,6.13
2022-10-10T17:24:05.663Z,6.10
2022-10-10T17:26:33.656Z,6.43
2022-10-10T17:29:02.923Z,6.80
2022-10-10T17:31:30.810Z,7.18
2022-10-10T17:33:59.028Z,7.85
2022-10-10T17:36:29.287Z,7.03
2022-10-10T17:39:07.690Z,7.50
2022-10-10T17:41:36.712Z,7.18
2022-10-10T17:44:05.814Z,7.22
2022-10-10T17:46:36.604Z,6.90
2022-10-10T17:49:09.145Z,8.32
2022-10-10T17:51:37.930Z,8.48
2022-10-10T17:54:11.378Z,9.38
2022-10-10T17:56:40.769Z,10.00
2022-10-10T17:59:12.710Z,10.38
2022-10-10T18:01:40.899Z,9.63
2022-10-10T18:04:09.016Z,11.68
2022-10-10T18:06:37.611Z,10.88
2022-10-10T18:09:05.918Z,11.63
2022-10-10T18:11:34.170Z,11.32
2022-10-10T18:14:02.235Z,11.95
2022-10-10T18:16:33.662Z,12.27
2022-10-10T18:19:01.913Z,11.73
2022-10-10T18:21:29.702Z,12.48
2022-10-10T18:23:57.603Z,11.77
2022-10-10T18:26:29.493Z,11.48
2022-10-10T18:28:57.543Z,12.05
2022-10-10T18:31:29.573Z,11.43
2022-10-10T18:33:57.425Z,11.98
2022-10-10T18:36:26.200Z,12.50
2022-10-10T18:38:54.307Z,11.40
2022-10-10T18:41:23.283Z,11.63
2022-10-10T18:43:51.828Z,11.18
2022-10-10T18:46:20.477Z,12.00
2022-10-10T18:48:52.978Z,11.52
2022-10-10T18:51:26.743Z,11.27
2022-10-10T18:54:03.273Z,11.70
2022-10-10T18:56:32.785Z,10.63
2022-10-10T18:59:01.927Z,11.27
2022-10-10T19:01:33.178Z,10.75
2022-10-10T19:04:01.165Z,12.10
2022-10-10T19:06:28.985Z,11.18
2022-10-10T19:08:57.600Z,10.20
2022-10-10T19:11:29.649Z,11.10
2022-10-10T19:13:59.357Z,10.38
2022-10-10T19:16:27.155Z,10.05
2022-10-10T19:18:58.487Z,9.90
2022-10-10T19:21:27.504Z,11.18
2022-10-10T19:23:55.393Z,10.32
2022-10-10T19:26:23.217Z,10.77
2022-10-10T19:28:51.178Z,10.80
2022-10-10T19:31:20.222Z,10.48
2022-10-10T19:33:51.593Z,10.52
2022-10-10T19:36:19.620Z,9.65
2022-10-10T19:38:47.535Z,9.40
2022-10-10T19:41:15.602Z,10.13
2022-10-10T19:43:44.528Z,10.65
2022-10-10T19:46:13.823Z,10.63
2022-10-10T19:48:41.887Z,10.57
2022-10-10T19:51:14.003Z,10.18
2022-10-10T19:53:42.319Z,10.30
2022-10-10T19:56:14.306Z,9.57
2022-10-10T19:58:42.324Z,9.73
2022-10-10T20:01:11.818Z,9.73
2022-10-10T20:03:39.943Z,10.27
2022-10-10T20:06:08.211Z,9.50
2022-10-10T20:08:36.273Z,9.00
2022-10-10T20:11:04.793Z,9.55
2022-10-10T20:13:33.309Z,10.38
2022-10-10T20:16:03.722Z,11.27
2022-10-10T20:18:33.325Z,10.65
2022-10-10T20:21:01.178Z,10.85
2022-10-10T20:23:29.024Z,11.82
2022-10-10T20:25:57.192Z,10.40
2022-10-10T20:28:25.159Z,10.05
2022-10-10T20:30:53.131Z,9.65
2022-10-10T20:33:21.741Z,9.35
2022-10-10T20:35:55.118Z,9.35
2022-10-10T20:38:23.843Z,10.38
2022-10-10T20:40:51.679Z,8.95
2022-10-10T20:43:19.531Z,9.23
2022-10-10T20:45:47.728Z,7.82
2022-10-10T20:48:15.569Z,8.77
2022-10-10T20:50:43.373Z,8.20
2022-10-10T20:53:11.529Z,8.27
2022-10-10T20:55:39.392Z,8.55
2022-10-10T20:58:07.184Z,8.38
2022-10-10T21:00:34.982Z,7.63
2022-10-10T21:03:02.753Z,8.32
2022-10-10T21:05:30.552Z,7.95
2022-10-10T21:07:58.455Z,8.10
2022-10-10T21:10:26.328Z,8.32
2022-10-10T21:12:54.149Z,8.02
2022-10-10T21:15:21.998Z,8.23
2022-10-10T21:17:50.266Z,7.40
2022-10-10T21:20:18.052Z,7.97
2022-10-10T21:22:45.873Z,7.70
2022-10-10T21:25:14.696Z,7.43
2022-10-10T21:27:42.567Z,7.00
2022-10-10T21:30:10.580Z,9.25
2022-10-10T21:32:38.529Z,7.32
2022-10-10T21:35:06.463Z,8.55
2022-10-10T21:37:35.168Z,9.05
2022-10-10T21:40:03.006Z,8.55
2022-10-10T21:42:30.833Z,8.88
2022-10-10T21:44:58.609Z,9.35
2022-10-10T21:47:27.006Z,8.07
2022-10-10T21:49:54.863Z,9.43
2022-10-10T21:52:22.719Z,8.27
2022-10-10T21:54:52.146Z,9.02
2022-10-10T21:57:20.928Z,7.85
2022-10-10T21:59:48.781Z,9.10
2022-10-10T22:02:16.561Z,8.32
2022-10-10T22:04:44.349Z,8.25
2022-10-10T22:07:12.190Z,8.63
2022-10-10T22:09:40.030Z,7.95
2022-10-10T22:12:07.926Z,8.00
2022-10-10T22:14:35.718Z,8.23
2022-10-10T22:17:03.466Z,8.30
2022-10-10T22:19:31.224Z,8.02
2022-10-10T22:21:59.161Z,8.13
2022-10-10T22:24:26.997Z,8.05
2022-10-10T22:26:54.822Z,8.57
2022-10-10T22:29:22.614Z,7.95
2022-10-10T22:31:50.598Z,8.45
2022-10-10T22:34:18.465Z,9.55
2022-10-10T22:36:46.436Z,9.70
2022-10-10T22:39:14.973Z,9.27
2022-10-10T22:41:42.805Z,8.90
2022-10-10T22:44:10.649Z,9.27
2022-10-10T22:46:38.635Z,9.45
2022-10-10T22:49:06.418Z,9.68
2022-10-10T22:51:34.257Z,9.40
2022-10-10T22:54:02.039Z,8.40
2022-10-10T22:56:29.827Z,9.57
2022-10-10T22:58:57.658Z,9.27
2022-10-10T23:01:26.170Z,9.45
2022-10-10T23:03:55.079Z,9.55
2022-10-10T23:06:22.875Z,9.35
2022-10-10T23:08:50.706Z,8.63
2022-10-10T23:11:18.898Z,8.75
2022-10-10T23:13:46.867Z,8.93
2022-10-10T23:16:15.234Z,8.90
2022-10-10T23:18:43.094Z,8.50
2022-10-10T23:21:10.913Z,9.40
2022-10-10T23:23:38.874Z,8.60
2022-10-10T23:26:07.964Z,7.85
2022-10-10T23:28:36.331Z,8.60
2022-10-10T23:31:05.448Z,8.43
2022-10-10T23:33:44.405Z,8.50
2022-10-10T23:36:23.777Z,8.00
2022-10-10T23:39:05.426Z,8.52
2022-10-10T23:41:46.585Z,9.30
2022-10-10T23:44:24.912Z,8.60
2022-10-10T23:47:03.042Z,9.30
2022-10-10T23:49:41.271Z,9.30
2022-10-10T23:52:19.496Z,8.82
2022-10-10T23:54:57.749Z,9.23
2022-10-10T23:57:38.969Z,9.68
